CSW5 weather

Montréal (Bell) Heliport
Montréal, Quebec, Canada

Public forecast

Using degrees Celsius for public forecast. Weather courtesy of forecast.io.

Closest aviation weather report (METAR) to Montréal (Bell) Heliport

Closest report is Montreal International (Mirabel) Airport, 4.5 nm (8.4 km) W. Retrieved 2019/12/16 12:00 UTC (37 minutes ago):

CYMX 161200Z 24005KT 210V270 45SM FEW020 FEW250 M13/M16 A3020 RMK SC1CI1 SC TR SLP234

Closest aviation forecast (TAF) to Montréal (Bell) Heliport

Closest forecast is Montreal International (Mirabel) Airport, 4.5 nm (8.4 km) W. Retrieved 2019/12/16 12:42 UTC (0 seconds ago):

TAF CYMX 161138Z 1612/1712 25006KT P6SM SKC FM161700 24008KT P6SM SCT030 FM162200 VRB03KT P6SM BKN030 TEMPO 1622/1706 BKN020 FM170600 VRB03KT P6SM FEW020 RMK NXT FCST BY 161800Z